createdAt,value
2019-01-10T00:01:24.109Z,94.80
2019-01-10T00:03:51.679Z,94.80
2019-01-10T00:06:19.127Z,94.50
2019-01-10T00:08:46.366Z,94.60
2019-01-10T00:11:13.741Z,95.00
2019-01-10T00:13:41.081Z,94.90
2019-01-10T00:16:08.497Z,95.30
2019-01-10T00:18:35.919Z,95.10
2019-01-10T00:21:03.415Z,95.10
2019-01-10T00:23:31.127Z,95.30
2019-01-10T00:25:58.420Z,95.10
2019-01-10T00:28:26.066Z,95.40
2019-01-10T00:30:53.522Z,95.30
2019-01-10T00:33:20.911Z,95.20
2019-01-10T00:35:48.327Z,95.30
2019-01-10T00:38:15.723Z,95.60
2019-01-10T00:40:43.135Z,95.20
2019-01-10T00:43:10.565Z,95.30
2019-01-10T00:45:37.939Z,95.30
2019-01-10T00:48:05.690Z,95.20
2019-01-10T00:50:33.065Z,95.20
2019-01-10T00:53:00.491Z,95.40
2019-01-10T00:55:27.903Z,95.10
2019-01-10T00:57:55.694Z,95.20
2019-01-10T01:00:24.804Z,95.10
2019-01-10T01:02:52.205Z,95.30
2019-01-10T01:05:19.878Z,95.30
2019-01-10T01:07:47.390Z,95.30
2019-01-10T01:10:20.146Z,95.60
2019-01-10T01:12:47.495Z,95.50
2019-01-10T01:15:16.080Z,95.30
2019-01-10T01:17:43.491Z,95.60
2019-01-10T01:20:12.091Z,95.40
2019-01-10T01:22:39.541Z,95.50
2019-01-10T01:25:08.353Z,95.60
2019-01-10T01:27:35.812Z,95.90
2019-01-10T01:30:05.710Z,96.00
2019-01-10T01:32:33.024Z,96.10
2019-01-10T01:35:01.765Z,95.80
2019-01-10T01:37:29.381Z,95.40
2019-01-10T01:39:57.134Z,95.80
2019-01-10T01:42:25.624Z,95.50
2019-01-10T01:44:53.054Z,95.40
2019-01-10T01:47:20.681Z,95.20
2019-01-10T01:49:48.095Z,95.40
2019-01-10T01:52:15.715Z,95.50
2019-01-10T01:54:43.399Z,95.60
2019-01-10T01:57:10.802Z,95.70
2019-01-10T01:59:38.188Z,95.50
2019-01-10T02:02:05.605Z,95.50
2019-01-10T02:04:33.292Z,95.50
2019-01-10T02:07:00.692Z,95.50
2019-01-10T02:09:28.072Z,95.50
2019-01-10T02:11:55.481Z,95.40
2019-01-10T02:14:22.832Z,95.20
2019-01-10T02:16:50.246Z,95.50
2019-01-10T02:19:17.681Z,95.40
2019-01-10T02:21:45.032Z,95.60
2019-01-10T02:24:12.475Z,95.70
2019-01-10T02:26:39.881Z,95.40
2019-01-10T02:29:07.285Z,95.70
2019-01-10T02:31:34.626Z,95.80
2019-01-10T02:34:02.511Z,95.90
2019-01-10T02:36:29.908Z,95.90
2019-01-10T02:38:57.298Z,95.90
2019-01-10T02:41:25.404Z,95.90
2019-01-10T02:43:52.676Z,95.70
2019-01-10T02:46:20.398Z,95.90
2019-01-10T02:48:48.091Z,95.80
2019-01-10T02:51:15.628Z,96.00
2019-01-10T02:53:43.025Z,95.90
2019-01-10T02:56:10.380Z,96.20
2019-01-10T02:58:38.221Z,96.30
2019-01-10T03:01:05.627Z,96.30
2019-01-10T03:03:34.214Z,96.40
2019-01-10T03:06:22.363Z,96.30
2019-01-10T03:08:49.747Z,96.20
2019-01-10T03:11:17.090Z,96.60
2019-01-10T03:13:46.812Z,96.50
2019-01-10T03:16:14.244Z,96.70
2019-01-10T03:18:41.609Z,96.70
2019-01-10T03:21:08.995Z,96.80
2019-01-10T03:23:38.229Z,96.80
2019-01-10T03:26:05.530Z,97.10
2019-01-10T03:28:33.188Z,96.80
2019-01-10T03:31:00.544Z,97.00
2019-01-10T03:33:28.078Z,97.00
2019-01-10T03:35:55.475Z,97.00
2019-01-10T03:38:22.862Z,96.80
2019-01-10T03:40:50.261Z,96.70
2019-01-10T03:43:17.638Z,96.90
2019-01-10T03:45:45.408Z,96.80
2019-01-10T03:48:12.808Z,96.70
2019-01-10T03:50:40.411Z,96.70
2019-01-10T03:53:07.693Z,96.60
2019-01-10T03:55:35.119Z,96.80
2019-01-10T03:58:03.081Z,96.60
2019-01-10T04:00:30.354Z,96.90
2019-01-10T04:02:57.763Z,96.80
2019-01-10T04:05:25.468Z,96.60
2019-01-10T04:07:52.904Z,96.60
2019-01-10T04:10:20.186Z,96.60
2019-01-10T04:12:47.605Z,96.40
2019-01-10T04:15:15.369Z,96.60
2019-01-10T04:17:42.750Z,96.60
2019-01-10T04:20:11.691Z,96.30
2019-01-10T04:22:39.102Z,96.70
2019-01-10T04:25:06.847Z,96.60
2019-01-10T04:27:34.220Z,96.60
2019-01-10T04:30:01.982Z,96.40
2019-01-10T04:32:29.479Z,96.20
2019-01-10T04:34:56.846Z,96.40
2019-01-10T04:37:24.724Z,96.20
2019-01-10T04:39:52.183Z,96.30
2019-01-10T04:42:21.765Z,96.40
2019-01-10T04:44:49.209Z,96.50
2019-01-10T04:47:16.605Z,96.70
2019-01-10T04:49:44.067Z,96.80
2019-01-10T04:52:11.427Z,96.50
2019-01-10T04:54:38.764Z,96.30
2019-01-10T04:57:06.055Z,96.50
2019-01-10T04:59:33.431Z,96.70
2019-01-10T05:02:01.083Z,96.10
2019-01-10T05:04:28.472Z,96.30
2019-01-10T05:06:58.187Z,96.40
2019-01-10T05:09:25.585Z,96.20
2019-01-10T05:11:52.945Z,96.30
2019-01-10T05:14:20.329Z,96.20
2019-01-10T05:16:47.769Z,96.20
2019-01-10T05:19:15.865Z,96.30
2019-01-10T05:21:43.142Z,96.30
2019-01-10T05:24:10.970Z,96.20
2019-01-10T05:26:38.635Z,96.60
2019-01-10T05:29:06.351Z,96.20
2019-01-10T05:31:34.144Z,96.40
2019-01-10T05:34:01.535Z,96.30
2019-01-10T05:36:28.841Z,96.30
2019-01-10T05:38:56.283Z,96.50
2019-01-10T05:41:23.682Z,96.30
2019-01-10T05:43:51.116Z,96.40
2019-01-10T05:46:18.550Z,96.30
2019-01-10T05:48:46.982Z,96.40
2019-01-10T05:51:15.381Z,96.50
2019-01-10T05:53:47.045Z,96.30
2019-01-10T05:56:15.632Z,96.20
2019-01-10T05:58:44.586Z,96.40
2019-01-10T06:01:12.316Z,96.50
2019-01-10T06:03:39.842Z,96.40
2019-01-10T06:06:07.316Z,96.30
2019-01-10T06:08:34.870Z,96.50
2019-01-10T06:11:02.293Z,96.30
2019-01-10T06:13:30.040Z,96.30
2019-01-10T06:15:57.559Z,96.50
2019-01-10T06:18:24.939Z,96.30
2019-01-10T06:20:52.722Z,96.00
2019-01-10T06:23:20.103Z,96.30
2019-01-10T06:25:47.444Z,96.30
2019-01-10T06:28:15.736Z,96.10
2019-01-10T06:30:43.151Z,96.20
2019-01-10T06:33:10.537Z,95.70
2019-01-10T06:35:37.946Z,96.30
2019-01-10T06:38:05.353Z,96.10
2019-01-10T06:40:32.758Z,96.20
2019-01-10T06:43:00.199Z,96.10
2019-01-10T06:45:27.599Z,95.80
2019-01-10T06:47:54.981Z,95.90
2019-01-10T06:50:22.432Z,96.30
2019-01-10T06:52:49.932Z,96.50
2019-01-10T06:55:17.351Z,96.70
2019-01-10T06:57:45.055Z,96.60
2019-01-10T07:00:20.619Z,97.00
2019-01-10T07:02:48.572Z,97.00
2019-01-10T07:05:15.975Z,97.10
2019-01-10T07:07:43.409Z,97.40
2019-01-10T07:10:14.265Z,97.30
2019-01-10T07:12:42.020Z,97.20
2019-01-10T07:15:09.868Z,97.00
2019-01-10T07:17:37.338Z,97.40
2019-01-10T07:20:05.229Z,97.70
2019-01-10T07:22:33.326Z,97.50
2019-01-10T07:25:00.894Z,97.60
2019-01-10T07:27:28.154Z,97.50
2019-01-10T07:29:56.229Z,97.50
2019-01-10T07:32:25.053Z,97.40
2019-01-10T07:34:59.972Z,97.30
2019-01-10T07:37:27.255Z,97.20
2019-01-10T07:39:54.634Z,97.60
2019-01-10T07:42:21.891Z,97.40
2019-01-10T07:44:49.140Z,97.40
2019-01-10T07:47:16.946Z,97.20
2019-01-10T07:49:44.349Z,97.30
2019-01-10T07:52:11.753Z,97.20
2019-01-10T07:54:39.123Z,97.20
2019-01-10T07:57:06.394Z,97.20
2019-01-10T07:59:33.652Z,97.00
2019-01-10T08:02:01.079Z,96.90
2019-01-10T08:04:28.619Z,96.60
2019-01-10T08:06:56.420Z,97.00
2019-01-10T08:09:23.820Z,96.80
2019-01-10T08:12:00.089Z,96.60
2019-01-10T08:14:20.731Z,96.70
2019-01-10T08:16:48.127Z,96.80
2019-01-10T08:19:16.706Z,96.80
2019-01-10T08:21:44.120Z,96.40
2019-01-10T08:24:11.691Z,96.80
2019-01-10T08:26:39.067Z,96.60
2019-01-10T08:29:06.293Z,96.60
2019-01-10T08:31:33.775Z,96.80
2019-01-10T08:34:00.996Z,97.00
2019-01-10T08:36:32.593Z,97.00
2019-01-10T08:38:58.078Z,96.90
2019-01-10T08:41:25.536Z,96.40
2019-01-10T08:43:52.959Z,96.20
2019-01-10T08:46:20.340Z,96.30
2019-01-10T08:48:47.989Z,96.20
2019-01-10T08:51:15.437Z,96.10
2019-01-10T08:53:42.947Z,96.10
2019-01-10T08:56:10.349Z,95.80
2019-01-10T08:58:37.844Z,96.00
2019-01-10T09:01:05.229Z,95.90
2019-01-10T09:03:32.666Z,96.00
2019-01-10T09:06:08.096Z,96.10
2019-01-10T09:08:29.627Z,96.20
2019-01-10T09:10:57.058Z,96.20
2019-01-10T09:13:24.475Z,96.10
2019-01-10T09:15:53.160Z,96.20
2019-01-10T09:18:20.705Z,95.80
2019-01-10T09:20:48.094Z,95.80
2019-01-10T09:23:16.239Z,95.70
2019-01-10T09:25:43.708Z,95.70
2019-01-10T09:28:11.505Z,95.70
2019-01-10T09:30:39.035Z,95.80
2019-01-10T09:33:06.300Z,95.90
2019-01-10T09:35:34.027Z,95.80
2019-01-10T09:38:01.377Z,95.50
2019-01-10T09:40:29.774Z,95.80
2019-01-10T09:42:57.253Z,95.40
2019-01-10T09:45:24.887Z,95.50
2019-01-10T09:47:52.731Z,95.60
2019-01-10T09:50:20.805Z,95.80
2019-01-10T09:52:48.413Z,95.70
2019-01-10T09:55:15.783Z,95.60
2019-01-10T09:57:43.276Z,95.50
2019-01-10T10:00:17.355Z,95.10
2019-01-10T10:02:44.763Z,95.10
2019-01-10T10:05:12.183Z,95.10
2019-01-10T10:07:39.590Z,95.30
2019-01-10T10:10:09.167Z,95.30
2019-01-10T10:12:36.395Z,95.20
2019-01-10T10:15:04.994Z,95.00
2019-01-10T10:17:32.330Z,95.40
2019-01-10T10:20:00.037Z,95.40
2019-01-10T10:22:27.740Z,95.60
2019-01-10T10:24:55.018Z,95.40
2019-01-10T10:27:22.775Z,95.70
2019-01-10T10:29:50.314Z,95.40
2019-01-10T10:32:17.599Z,95.40
2019-01-10T10:34:44.967Z,95.20
2019-01-10T10:37:12.375Z,95.50
2019-01-10T10:39:40.014Z,95.50
2019-01-10T10:42:07.424Z,95.40
2019-01-10T10:44:35.029Z,95.80
2019-01-10T10:47:02.683Z,95.50
2019-01-10T10:49:30.089Z,95.50
2019-01-10T10:51:57.514Z,95.60
2019-01-10T10:54:24.758Z,95.50
2019-01-10T10:56:52.238Z,95.90
2019-01-10T10:59:19.615Z,95.80
2019-01-10T11:01:47.005Z,95.80
2019-01-10T11:04:14.923Z,95.40
2019-01-10T11:06:42.443Z,95.50
2019-01-10T11:09:10.405Z,95.50
2019-01-10T11:11:37.913Z,95.40
2019-01-10T11:14:05.429Z,95.30
2019-01-10T11:16:33.095Z,95.60
2019-01-10T11:19:00.530Z,95.30
2019-01-10T11:21:28.241Z,94.80
2019-01-10T11:23:55.612Z,94.90
2019-01-10T11:26:22.908Z,94.60
2019-01-10T11:28:50.370Z,94.90
2019-01-10T11:31:17.967Z,94.50
2019-01-10T11:33:45.512Z,94.80
2019-01-10T11:36:13.003Z,94.60
2019-01-10T11:38:40.351Z,94.70
2019-01-10T11:41:08.091Z,94.40
2019-01-10T11:43:35.626Z,94.10
2019-01-10T11:46:03.201Z,94.50
2019-01-10T11:48:30.494Z,94.40
2019-01-10T11:50:57.840Z,93.50
2019-01-10T11:53:25.247Z,94.20
2019-01-10T11:55:52.634Z,93.80
2019-01-10T11:58:20.023Z,94.00
2019-01-10T12:00:47.301Z,94.30
2019-01-10T12:03:14.697Z,94.20
2019-01-10T12:05:48.245Z,94.30
2019-01-10T12:08:14.651Z,93.70
2019-01-10T12:10:42.090Z,93.60
2019-01-10T12:13:09.490Z,93.40
2019-01-10T12:15:37.006Z,93.30
2019-01-10T12:18:04.651Z,93.40
2019-01-10T12:20:32.094Z,92.90
2019-01-10T12:22:59.612Z,93.30
2019-01-10T12:25:26.957Z,93.00
2019-01-10T12:27:54.382Z,92.90
2019-01-10T12:30:23.551Z,93.10
2019-01-10T12:32:50.829Z,92.90
2019-01-10T12:35:19.383Z,92.60
2019-01-10T12:37:47.205Z,92.40
2019-01-10T12:40:14.614Z,92.60
2019-01-10T12:42:42.022Z,92.50
2019-01-10T12:45:10.631Z,92.80
2019-01-10T12:47:38.012Z,92.50
2019-01-10T12:50:09.971Z,93.00
2019-01-10T12:52:37.337Z,92.80
2019-01-10T12:55:04.930Z,93.20
2019-01-10T12:57:32.347Z,92.40
2019-01-10T12:59:59.657Z,92.00
2019-01-10T13:02:27.059Z,92.30
2019-01-10T13:04:54.558Z,92.40
2019-01-10T13:07:21.935Z,91.90
2019-01-10T13:09:49.470Z,92.10
2019-01-10T13:12:16.887Z,91.80
2019-01-10T13:14:44.583Z,91.70
2019-01-10T13:17:13.064Z,91.70
2019-01-10T13:19:40.858Z,91.90
2019-01-10T13:22:08.430Z,91.90
2019-01-10T13:24:35.829Z,91.80
2019-01-10T13:27:03.417Z,92.20
2019-01-10T13:29:30.761Z,92.10
2019-01-10T13:31:58.155Z,92.30
2019-01-10T13:34:25.523Z,92.40
2019-01-10T13:36:52.925Z,92.70
2019-01-10T13:39:20.307Z,92.70
2019-01-10T13:41:47.745Z,93.00
2019-01-10T13:44:15.167Z,92.50
2019-01-10T13:46:42.563Z,92.40
2019-01-10T13:49:10.080Z,92.30
2019-01-10T13:51:38.780Z,92.50
2019-01-10T13:54:06.307Z,92.70
2019-01-10T13:56:34.767Z,93.00
2019-01-10T13:59:02.176Z,93.00
2019-01-10T14:01:29.537Z,93.10
2019-01-10T14:03:57.220Z,93.10
2019-01-10T14:06:24.722Z,93.30
2019-01-10T14:08:52.094Z,93.30
2019-01-10T14:11:20.088Z,93.60
2019-01-10T14:13:47.723Z,93.60
2019-01-10T14:16:14.977Z,93.60
2019-01-10T14:18:42.578Z,93.40
2019-01-10T14:21:09.994Z,93.70
2019-01-10T14:23:37.457Z,93.50
2019-01-10T14:26:05.193Z,93.60
2019-01-10T14:28:32.565Z,93.50
2019-01-10T14:30:59.999Z,93.30
2019-01-10T14:33:27.905Z,93.40
2019-01-10T14:35:55.294Z,93.50
2019-01-10T14:38:22.910Z,93.30
2019-01-10T14:40:50.442Z,93.40
2019-01-10T14:43:17.845Z,93.00
2019-01-10T14:45:45.228Z,93.30
2019-01-10T14:48:12.563Z,93.40
2019-01-10T14:50:40.970Z,93.40
2019-01-10T14:53:08.616Z,93.50
2019-01-10T14:55:36.019Z,93.40
2019-01-10T14:58:03.796Z,93.20
2019-01-10T15:00:31.159Z,93.60
2019-01-10T15:02:58.595Z,93.70
2019-01-10T15:05:26.363Z,93.60
2019-01-10T15:07:54.084Z,93.80
2019-01-10T15:10:21.367Z,94.10
2019-01-10T15:12:49.029Z,94.00
2019-01-10T15:15:18.185Z,94.20
2019-01-10T15:17:46.704Z,94.10
2019-01-10T15:20:25.732Z,93.80
2019-01-10T15:22:53.211Z,94.10
2019-01-10T15:25:21.047Z,94.30
2019-01-10T15:27:48.552Z,94.30
2019-01-10T15:30:20.973Z,93.90
2019-01-10T15:32:48.370Z,94.00
2019-01-10T15:35:15.833Z,94.00
2019-01-10T15:37:43.343Z,94.10
2019-01-10T15:40:22.537Z,94.10
2019-01-10T15:42:49.807Z,94.00
2019-01-10T15:45:17.221Z,94.10
2019-01-10T15:47:44.611Z,93.90
2019-01-10T15:50:14.194Z,93.50
2019-01-10T15:52:41.554Z,94.00
2019-01-10T15:55:09.592Z,93.40
2019-01-10T15:57:36.983Z,93.40
2019-01-10T16:00:06.403Z,93.70
2019-01-10T16:02:34.420Z,93.20
2019-01-10T16:05:02.011Z,93.20
2019-01-10T16:07:29.506Z,93.30
2019-01-10T16:09:56.809Z,92.90
2019-01-10T16:12:24.211Z,93.00
2019-01-10T16:14:51.909Z,92.90
2019-01-10T16:17:19.270Z,92.70
2019-01-10T16:19:46.626Z,92.70
2019-01-10T16:22:13.971Z,92.80
2019-01-10T16:24:41.324Z,92.60
2019-01-10T16:27:08.720Z,92.70
2019-01-10T16:29:36.153Z,92.60
2019-01-10T16:32:03.800Z,93.10
2019-01-10T16:34:31.082Z,92.90
2019-01-10T16:36:58.514Z,92.20
2019-01-10T16:39:25.881Z,92.50
2019-01-10T16:41:53.508Z,92.50
2019-01-10T16:44:20.841Z,92.40
2019-01-10T16:46:48.303Z,92.20
2019-01-10T16:49:15.654Z,92.30
2019-01-10T16:51:44.159Z,92.10
2019-01-10T16:54:12.554Z,91.80
2019-01-10T16:56:40.016Z,91.90
2019-01-10T16:59:07.401Z,92.00
2019-01-10T17:01:34.803Z,92.00
2019-01-10T17:04:02.055Z,92.00
2019-01-10T17:06:29.488Z,92.10
2019-01-10T17:08:56.885Z,92.10
2019-01-10T17:11:24.338Z,92.10
2019-01-10T17:13:51.717Z,91.60
2019-01-10T17:16:18.974Z,91.60
2019-01-10T17:18:46.639Z,91.30
2019-01-10T17:21:14.027Z,91.30
2019-01-10T17:23:41.824Z,91.20
2019-01-10T17:26:09.115Z,91.10
2019-01-10T17:28:36.551Z,91.20
2019-01-10T17:31:03.827Z,91.20
2019-01-10T17:33:31.212Z,90.50
2019-01-10T17:35:58.679Z,90.70
2019-01-10T17:38:26.203Z,90.80
2019-01-10T17:40:54.488Z,90.90
2019-01-10T17:43:22.051Z,90.90
2019-01-10T17:45:50.184Z,91.30
2019-01-10T17:48:17.813Z,91.20
2019-01-10T17:50:45.255Z,90.50
2019-01-10T17:53:14.302Z,91.40
2019-01-10T17:55:41.933Z,91.10
2019-01-10T17:58:09.704Z,90.80
2019-01-10T18:00:37.745Z,90.70
2019-01-10T18:03:05.841Z,90.60
2019-01-10T18:05:33.231Z,90.70
2019-01-10T18:08:00.727Z,90.30
2019-01-10T18:10:28.332Z,90.30
2019-01-10T18:12:55.775Z,90.70
2019-01-10T18:15:23.572Z,90.50
2019-01-10T18:17:51.025Z,90.40
2019-01-10T18:20:41.098Z,90.20
2019-01-10T18:23:08.765Z,89.80
2019-01-10T18:25:36.574Z,89.90
2019-01-10T18:28:04.289Z,89.90
2019-01-10T18:30:31.786Z,89.90
2019-01-10T18:33:00.304Z,89.50
2019-01-10T18:35:27.920Z,89.40
2019-01-10T18:37:55.360Z,89.60
2019-01-10T18:40:22.781Z,89.60
2019-01-10T18:42:50.219Z,89.30
2019-01-10T18:45:20.157Z,89.00
2019-01-10T18:47:47.660Z,88.50
2019-01-10T18:50:17.437Z,88.20
2019-01-10T18:52:44.939Z,87.80
2019-01-10T18:55:12.349Z,88.00
2019-01-10T18:57:39.877Z,88.40
2019-01-10T19:00:36.291Z,88.40
2019-01-10T19:03:03.757Z,89.00
2019-01-10T19:05:31.581Z,88.70
2019-01-10T19:07:58.975Z,88.80
2019-01-10T19:10:26.372Z,89.20
2019-01-10T19:12:53.900Z,89.20
2019-01-10T19:15:21.663Z,89.30
2019-01-10T19:17:49.186Z,89.30
2019-01-10T19:20:19.246Z,89.60
2019-01-10T19:22:47.859Z,89.30
2019-01-10T19:25:15.334Z,89.00
2019-01-10T19:27:42.813Z,88.90
2019-01-10T19:30:18.349Z,88.00
2019-01-10T19:32:45.725Z,88.40
2019-01-10T19:35:13.127Z,88.90
2019-01-10T19:37:40.493Z,89.10
2019-01-10T19:40:10.718Z,88.90
2019-01-10T19:42:38.840Z,89.30
2019-01-10T19:45:07.767Z,89.30
2019-01-10T19:47:35.794Z,89.40
2019-01-10T19:50:04.607Z,89.20
2019-01-10T19:52:32.171Z,88.70
2019-01-10T19:54:59.689Z,88.50
2019-01-10T19:57:27.187Z,88.50
2019-01-10T19:59:54.668Z,88.50
2019-01-10T20:02:22.564Z,88.90
2019-01-10T20:04:50.227Z,88.80
2019-01-10T20:07:18.165Z,88.80
2019-01-10T20:09:45.628Z,88.10
2019-01-10T20:12:13.562Z,88.30
2019-01-10T20:14:41.038Z,88.40
2019-01-10T20:17:08.980Z,88.80
2019-01-10T20:19:36.401Z,88.70
2019-01-10T20:22:03.764Z,88.50
2019-01-10T20:24:32.493Z,87.50
2019-01-10T20:26:59.982Z,87.70
2019-01-10T20:29:29.167Z,87.70
2019-01-10T20:31:56.681Z,88.10
2019-01-10T20:34:24.510Z,87.30
2019-01-10T20:36:51.903Z,87.20
2019-01-10T20:39:20.068Z,87.10
2019-01-10T20:41:47.530Z,87.40
2019-01-10T20:44:14.942Z,88.10
2019-01-10T20:46:42.719Z,88.50
2019-01-10T20:49:10.092Z,89.20
2019-01-10T20:51:37.595Z,88.70
2019-01-10T20:54:05.333Z,88.70
2019-01-10T20:56:32.727Z,89.00
2019-01-10T20:59:01.811Z,89.00
2019-01-10T21:01:29.166Z,88.70
2019-01-10T21:03:56.908Z,88.80
2019-01-10T21:06:24.452Z,88.10
2019-01-10T21:08:52.269Z,88.40
2019-01-10T21:11:19.627Z,88.80
2019-01-10T21:13:48.309Z,88.40
2019-01-10T21:16:29.808Z,88.60
2019-01-10T21:18:57.191Z,88.80
2019-01-10T21:21:24.680Z,88.70
2019-01-10T21:23:51.968Z,88.90
2019-01-10T21:26:19.735Z,88.70
2019-01-10T21:28:47.498Z,88.80
2019-01-10T21:31:15.301Z,89.00
2019-01-10T21:33:42.662Z,89.30
2019-01-10T21:36:10.069Z,89.30
2019-01-10T21:38:37.612Z,89.10
2019-01-10T21:41:05.346Z,88.70
2019-01-10T21:43:32.826Z,88.90
2019-01-10T21:46:00.203Z,89.00
2019-01-10T21:48:27.725Z,89.00
2019-01-10T21:50:55.287Z,89.30
2019-01-10T21:53:22.998Z,89.40
2019-01-10T21:55:50.814Z,89.70
2019-01-10T21:58:18.061Z,89.30
2019-01-10T22:00:45.348Z,89.40
2019-01-10T22:03:13.881Z,89.30
2019-01-10T22:05:41.294Z,89.00
2019-01-10T22:08:08.715Z,89.20
2019-01-10T22:10:36.203Z,89.30
2019-01-10T22:13:03.577Z,89.20
2019-01-10T22:15:31.327Z,89.10
2019-01-10T22:17:58.791Z,89.10
2019-01-10T22:20:26.661Z,89.40
2019-01-10T22:22:54.357Z,89.10
2019-01-10T22:25:21.852Z,89.00
2019-01-10T22:27:50.658Z,89.30
2019-01-10T22:30:19.961Z,89.30
2019-01-10T22:32:47.671Z,89.20
2019-01-10T22:35:16.443Z,88.90
2019-01-10T22:37:43.753Z,88.90
2019-01-10T22:40:13.839Z,88.60
2019-01-10T22:42:41.401Z,89.10
2019-01-10T22:45:09.162Z,89.70
2019-01-10T22:47:36.549Z,89.50
2019-01-10T22:50:05.497Z,89.90
2019-01-10T22:52:33.053Z,89.80
2019-01-10T22:55:00.436Z,89.90
2019-01-10T22:57:27.705Z,89.90
2019-01-10T22:59:55.066Z,90.20
2019-01-10T23:02:22.491Z,90.50
2019-01-10T23:04:50.099Z,90.60
2019-01-10T23:07:21.391Z,90.80
2019-01-10T23:09:48.793Z,90.80
2019-01-10T23:12:16.525Z,90.60
2019-01-10T23:14:44.292Z,90.80
2019-01-10T23:17:11.648Z,90.80
2019-01-10T23:19:47.097Z,91.20
2019-01-10T23:22:15.777Z,91.00
2019-01-10T23:24:44.063Z,91.20
2019-01-10T23:27:11.559Z,91.00
2019-01-10T23:29:39.185Z,91.10
2019-01-10T23:32:09.471Z,91.10
2019-01-10T23:34:37.324Z,91.20
2019-01-10T23:37:05.170Z,91.00
2019-01-10T23:39:32.586Z,91.20
2019-01-10T23:42:00.370Z,91.30
2019-01-10T23:44:27.815Z,91.20
2019-01-10T23:46:55.570Z,90.90
2019-01-10T23:49:22.859Z,90.90
2019-01-10T23:51:50.231Z,90.20
2019-01-10T23:54:18.077Z,90.00
2019-01-10T23:56:45.500Z,89.90
2019-01-10T23:59:12.906Z,89.60
